createdAt,value
2023-05-21T00:02:10.068Z,9.00
2023-05-21T00:04:40.658Z,9.13
2023-05-21T00:07:09.421Z,8.65
2023-05-21T00:09:39.121Z,7.85
2023-05-21T00:12:10.552Z,8.95
2023-05-21T00:14:38.843Z,8.35
2023-05-21T00:17:07.165Z,8.70
2023-05-21T00:19:35.912Z,8.65
2023-05-21T00:22:04.475Z,8.63
2023-05-21T00:24:32.779Z,9.07
2023-05-21T00:27:00.988Z,8.48
2023-05-21T00:29:30.630Z,8.48
2023-05-21T00:31:58.999Z,8.93
2023-05-21T00:34:27.345Z,8.07
2023-05-21T00:36:55.821Z,7.85
2023-05-21T00:39:24.283Z,8.85
2023-05-21T00:41:52.654Z,8.52
2023-05-21T00:44:20.859Z,8.73
2023-05-21T00:46:53.547Z,8.07
2023-05-21T00:49:24.479Z,8.43
2023-05-21T00:51:53.053Z,8.57
2023-05-21T00:54:21.502Z,9.65
2023-05-21T00:56:50.711Z,8.75
2023-05-21T00:59:19.375Z,8.45
2023-05-21T01:01:53.960Z,8.05
2023-05-21T01:04:24.323Z,8.10
2023-05-21T01:06:53.443Z,10.25
2023-05-21T01:09:22.353Z,9.38
2023-05-21T01:11:53.751Z,8.48
2023-05-21T01:14:25.084Z,9.25
2023-05-21T01:16:54.005Z,8.30
2023-05-21T01:19:25.657Z,9.60
2023-05-21T01:22:01.435Z,8.65
2023-05-21T01:24:31.302Z,9.18
2023-05-21T01:27:01.162Z,8.77
2023-05-21T01:29:29.357Z,9.45
2023-05-21T01:32:11.136Z,9.10
2023-05-21T01:34:46.992Z,8.95
2023-05-21T01:37:25.212Z,9.55
2023-05-21T01:40:03.830Z,9.02
2023-05-21T01:42:34.752Z,8.48
2023-05-21T01:45:07.050Z,8.93
2023-05-21T01:47:38.507Z,8.77
2023-05-21T01:50:08.570Z,8.55
2023-05-21T01:52:37.850Z,8.48
2023-05-21T01:55:09.750Z,9.15
2023-05-21T01:57:38.004Z,8.35
2023-05-21T02:00:09.148Z,8.93
2023-05-21T02:02:43.666Z,8.77
2023-05-21T02:05:12.245Z,9.50
2023-05-21T02:07:40.990Z,8.85
2023-05-21T02:10:11.789Z,9.27
2023-05-21T02:12:40.378Z,8.57
2023-05-21T02:15:10.656Z,9.27
2023-05-21T02:17:39.029Z,8.68
2023-05-21T02:20:13.523Z,8.80
2023-05-21T02:22:44.324Z,9.15
2023-05-21T02:25:15.897Z,9.15
2023-05-21T02:27:46.582Z,9.02
2023-05-21T02:30:16.746Z,9.00
2023-05-21T02:32:45.595Z,9.30
2023-05-21T02:35:14.690Z,7.97
2023-05-21T02:37:44.200Z,9.43
2023-05-21T02:40:14.720Z,8.93
2023-05-21T02:42:43.218Z,9.30
2023-05-21T02:45:15.979Z,8.65
2023-05-21T02:47:45.274Z,9.27
2023-05-21T02:50:15.862Z,8.98
2023-05-21T02:52:49.183Z,9.27
2023-05-21T02:55:18.800Z,9.30
2023-05-21T02:57:46.994Z,8.90
2023-05-21T03:00:16.616Z,9.20
2023-05-21T03:02:45.860Z,8.82
2023-05-21T03:05:14.337Z,8.98
2023-05-21T03:07:43.561Z,9.35
2023-05-21T03:10:12.516Z,8.80
2023-05-21T03:12:42.209Z,8.85
2023-05-21T03:15:14.615Z,9.63
2023-05-21T03:17:44.568Z,8.68
2023-05-21T03:20:16.513Z,9.23
2023-05-21T03:22:45.911Z,9.60
2023-05-21T03:25:14.543Z,8.80
2023-05-21T03:27:44.060Z,9.25
2023-05-21T03:30:27.254Z,9.63
2023-05-21T03:33:15.546Z,8.70
2023-05-21T03:35:44.764Z,9.35
2023-05-21T03:38:13.167Z,9.52
2023-05-21T03:40:41.553Z,9.00
2023-05-21T03:43:11.796Z,9.18
2023-05-21T03:45:42.119Z,9.85
2023-05-21T03:48:32.141Z,8.95
2023-05-21T03:51:01.446Z,8.98
2023-05-21T03:53:29.799Z,9.15
2023-05-21T03:55:58.011Z,9.52
2023-05-21T03:58:28.098Z,9.48
2023-05-21T04:00:56.509Z,9.90
2023-05-21T04:03:25.196Z,9.73
2023-05-21T04:05:53.922Z,10.20
2023-05-21T04:08:22.154Z,9.90
2023-05-21T04:10:50.428Z,9.82
2023-05-21T04:13:18.576Z,9.75
2023-05-21T04:15:48.619Z,10.43
2023-05-21T04:18:17.365Z,8.95
2023-05-21T04:20:46.228Z,9.40
2023-05-21T04:23:14.388Z,10.82
2023-05-21T04:25:42.612Z,9.13
2023-05-21T04:28:11.049Z,9.30
2023-05-21T04:30:39.340Z,9.60
2023-05-21T04:33:09.955Z,10.73
2023-05-21T04:35:44.410Z,9.65
2023-05-21T04:38:12.686Z,9.23
2023-05-21T04:40:40.829Z,10.00
2023-05-21T04:43:09.065Z,9.25
2023-05-21T04:45:37.586Z,9.77
2023-05-21T04:48:08.108Z,9.95
2023-05-21T04:50:36.394Z,10.43
2023-05-21T04:53:04.562Z,10.07
2023-05-21T04:55:33.035Z,9.68
2023-05-21T04:58:01.321Z,9.88
2023-05-21T05:00:29.537Z,9.70
2023-05-21T05:02:57.952Z,10.13
2023-05-21T05:05:27.574Z,10.18
2023-05-21T05:07:56.244Z,10.20
2023-05-21T05:10:24.531Z,10.35
2023-05-21T05:12:54.327Z,9.35
2023-05-21T05:15:22.671Z,9.65
2023-05-21T05:17:51.430Z,10.15
2023-05-21T05:20:19.911Z,9.90
2023-05-21T05:22:49.551Z,9.27
2023-05-21T05:25:20.160Z,10.73
2023-05-21T05:27:48.429Z,10.40
2023-05-21T05:30:16.731Z,9.05
2023-05-21T05:32:45.146Z,10.32
2023-05-21T05:35:13.417Z,9.82
2023-05-21T05:37:41.921Z,10.05
2023-05-21T05:40:12.224Z,9.95
2023-05-21T05:42:40.868Z,9.68
2023-05-21T05:45:13.883Z,10.07
2023-05-21T05:47:42.644Z,9.50
2023-05-21T05:50:11.982Z,9.27
2023-05-21T05:52:40.315Z,9.35
2023-05-21T05:55:11.881Z,9.93
2023-05-21T05:57:40.243Z,9.35
2023-05-21T06:00:15.421Z,9.00
2023-05-21T06:02:50.645Z,9.55
2023-05-21T06:05:19.020Z,9.27
2023-05-21T06:07:47.278Z,9.57
2023-05-21T06:10:16.941Z,9.38
2023-05-21T06:12:45.146Z,9.98
2023-05-21T06:15:14.928Z,9.65
2023-05-21T06:17:43.263Z,8.98
2023-05-21T06:20:14.114Z,9.40
2023-05-21T06:22:42.436Z,8.93
2023-05-21T06:25:12.011Z,9.02
2023-05-21T06:27:41.763Z,8.70
2023-05-21T06:30:17.414Z,8.77
2023-05-21T06:32:45.777Z,10.15
2023-05-21T06:35:14.263Z,9.18
2023-05-21T06:37:43.053Z,8.95
2023-05-21T06:40:12.097Z,10.15
2023-05-21T06:42:42.900Z,9.45
2023-05-21T06:45:31.385Z,9.13
2023-05-21T06:48:05.461Z,8.40
2023-05-21T06:50:33.991Z,9.05
2023-05-21T06:53:02.440Z,9.43
2023-05-21T06:55:30.868Z,8.80
2023-05-21T06:58:31.100Z,9.23
2023-05-21T07:00:59.678Z,9.05
2023-05-21T07:03:29.082Z,8.55
2023-05-21T07:05:58.474Z,9.65
2023-05-21T07:08:27.202Z,9.30
2023-05-21T07:10:56.297Z,8.18
2023-05-21T07:13:26.018Z,8.98
2023-05-21T07:15:54.560Z,8.85
2023-05-21T07:18:22.885Z,9.57
2023-05-21T07:20:51.512Z,8.75
2023-05-21T07:23:21.255Z,9.48
2023-05-21T07:25:49.580Z,8.93
2023-05-21T07:28:18.299Z,9.20
2023-05-21T07:30:48.062Z,8.40
2023-05-21T07:33:22.601Z,8.43
2023-05-21T07:35:52.411Z,8.70
2023-05-21T07:38:20.716Z,9.25
2023-05-21T07:40:49.206Z,8.52
2023-05-21T07:43:17.506Z,9.48
2023-05-21T07:45:47.237Z,9.55
2023-05-21T07:48:15.813Z,8.35
2023-05-21T07:50:54.209Z,9.48
2023-05-21T07:53:22.427Z,8.77
2023-05-21T07:55:51.996Z,8.40
2023-05-21T07:58:25.365Z,8.73
2023-05-21T08:00:55.979Z,7.95
2023-05-21T08:03:30.872Z,9.38
2023-05-21T08:05:59.380Z,9.45
2023-05-21T08:08:28.142Z,9.45
2023-05-21T08:10:58.354Z,9.13
2023-05-21T08:13:28.338Z,8.45
2023-05-21T08:15:57.974Z,7.70
2023-05-21T08:18:27.639Z,8.50
2023-05-21T08:20:58.633Z,8.30
2023-05-21T08:23:27.605Z,8.38
2023-05-21T08:25:57.913Z,8.80
2023-05-21T08:28:27.551Z,8.38
2023-05-21T08:30:57.667Z,8.48
2023-05-21T08:33:26.506Z,8.50
2023-05-21T08:35:55.131Z,8.73
2023-05-21T08:38:30.497Z,7.93
2023-05-21T08:41:12.124Z,8.23
2023-05-21T08:43:40.732Z,8.20
2023-05-21T08:46:11.269Z,7.53
2023-05-21T08:48:43.186Z,8.20
2023-05-21T08:51:11.817Z,8.00
2023-05-21T08:53:46.311Z,7.82
2023-05-21T08:56:18.633Z,7.82
2023-05-21T08:58:50.536Z,6.97
2023-05-21T09:01:25.749Z,7.63
2023-05-21T09:04:19.539Z,8.18
2023-05-21T09:06:51.225Z,8.68
2023-05-21T09:09:35.309Z,7.32
2023-05-21T09:12:03.904Z,8.65
2023-05-21T09:14:34.126Z,8.05
2023-05-21T09:17:09.654Z,8.00
2023-05-21T09:19:38.228Z,7.72
2023-05-21T09:22:06.866Z,8.73
2023-05-21T09:24:36.494Z,8.45
2023-05-21T09:27:08.612Z,8.02
2023-05-21T09:29:37.191Z,9.27
2023-05-21T09:32:12.323Z,7.72
2023-05-21T09:34:42.431Z,8.02
2023-05-21T09:37:26.539Z,7.95
2023-05-21T09:39:56.323Z,8.85
2023-05-21T09:42:26.499Z,7.57
2023-05-21T09:44:54.785Z,8.30
2023-05-21T09:47:24.595Z,8.32
2023-05-21T09:49:53.261Z,7.50
2023-05-21T09:52:26.277Z,8.23
2023-05-21T09:54:54.846Z,8.45
2023-05-21T09:57:27.778Z,7.95
2023-05-21T09:59:56.260Z,8.32
2023-05-21T10:02:27.625Z,8.48
2023-05-21T10:04:58.403Z,7.50
2023-05-21T10:07:28.334Z,7.50
2023-05-21T10:09:58.858Z,7.80
2023-05-21T10:12:31.244Z,7.18
2023-05-21T10:15:04.055Z,7.55
2023-05-21T10:17:34.527Z,7.65
2023-05-21T10:20:05.208Z,7.63
2023-05-21T10:22:35.282Z,7.50
2023-05-21T10:25:05.492Z,7.57
2023-05-21T10:27:35.779Z,7.95
2023-05-21T10:30:06.403Z,8.02
2023-05-21T10:32:36.705Z,7.20
2023-05-21T10:35:06.139Z,7.78
2023-05-21T10:37:34.368Z,6.85
2023-05-21T10:40:03.897Z,7.75
2023-05-21T10:43:14.445Z,6.75
2023-05-21T10:46:13.001Z,7.68
2023-05-21T10:49:08.417Z,7.35
2023-05-21T10:51:52.871Z,7.30
2023-05-21T10:55:01.661Z,7.05
2023-05-21T10:58:12.038Z,6.75
2023-05-21T11:00:41.054Z,7.32
2023-05-21T11:03:12.122Z,6.90
2023-05-21T11:05:43.175Z,6.43
2023-05-21T11:08:23.848Z,7.60
2023-05-21T11:10:58.463Z,7.88
2023-05-21T11:13:28.591Z,7.65
2023-05-21T11:16:08.333Z,6.97
2023-05-21T11:19:02.540Z,7.13
2023-05-21T11:21:35.978Z,7.30
2023-05-21T11:24:08.411Z,7.45
2023-05-21T11:27:06.646Z,7.32
2023-05-21T11:29:44.277Z,6.15
2023-05-21T11:32:15.451Z,6.43
2023-05-21T11:34:47.085Z,6.85
2023-05-21T11:37:31.855Z,6.15
2023-05-21T11:40:22.464Z,6.35
2023-05-21T11:42:53.328Z,6.35
2023-05-21T11:45:23.363Z,5.45
2023-05-21T11:47:52.758Z,6.50
2023-05-21T11:50:21.543Z,6.13
2023-05-21T11:52:52.613Z,6.40
2023-05-21T11:55:26.100Z,6.30
2023-05-21T11:57:56.547Z,5.97
2023-05-21T12:00:24.848Z,5.63
2023-05-21T12:02:55.548Z,5.97
2023-05-21T12:05:27.688Z,5.50
2023-05-21T12:07:58.374Z,5.97
2023-05-21T12:10:27.852Z,5.90
2023-05-21T12:12:59.238Z,6.22
2023-05-21T12:15:29.901Z,6.57
2023-05-21T12:17:58.189Z,5.68
2023-05-21T12:20:29.042Z,6.15
2023-05-21T12:23:00.619Z,6.85
2023-05-21T12:25:30.398Z,6.15
2023-05-21T12:28:01.438Z,6.55
2023-05-21T12:30:30.679Z,7.15
2023-05-21T12:33:03.131Z,6.70
2023-05-21T12:35:32.808Z,6.20
2023-05-21T12:38:04.138Z,6.00
2023-05-21T12:40:40.530Z,5.85
2023-05-21T12:43:09.089Z,6.50
2023-05-21T12:45:40.569Z,5.65
2023-05-21T12:48:09.342Z,5.60
2023-05-21T12:50:41.805Z,5.78
2023-05-21T12:53:12.942Z,6.15
2023-05-21T12:55:41.453Z,5.45
2023-05-21T12:58:09.847Z,6.38
2023-05-21T13:00:38.657Z,6.22
2023-05-21T13:03:07.983Z,6.25
2023-05-21T13:05:36.505Z,5.68
2023-05-21T13:08:05.132Z,5.63
2023-05-21T13:10:35.064Z,6.07
2023-05-21T13:13:03.539Z,5.63
2023-05-21T13:15:31.850Z,5.70
2023-05-21T13:18:01.216Z,5.50
2023-05-21T13:20:30.093Z,5.28
2023-05-21T13:22:58.669Z,5.88
2023-05-21T13:25:29.661Z,5.57
2023-05-21T13:28:03.141Z,5.53
2023-05-21T13:30:33.252Z,6.07
2023-05-21T13:33:01.679Z,12.48
2023-05-21T13:35:30.550Z,5.60
2023-05-21T13:37:58.845Z,5.72
2023-05-21T13:40:27.965Z,6.05
2023-05-21T13:42:56.290Z,5.32
2023-05-21T13:45:29.062Z,6.00
2023-05-21T13:47:57.995Z,5.43
2023-05-21T13:50:26.888Z,5.93
2023-05-21T13:52:55.194Z,5.53
2023-05-21T13:55:23.810Z,5.55
2023-05-21T13:57:52.026Z,6.30
2023-05-21T14:00:20.389Z,5.32
2023-05-21T14:02:50.483Z,4.80
2023-05-21T14:05:19.191Z,5.90
2023-05-21T14:07:48.294Z,6.32
2023-05-21T14:10:16.947Z,7.80
2023-05-21T14:12:47.122Z,6.82
2023-05-21T14:15:17.164Z,7.15
2023-05-21T14:17:45.429Z,7.10
2023-05-21T14:20:15.329Z,7.15
2023-05-21T14:22:43.486Z,6.30
2023-05-21T14:25:12.372Z,6.15
2023-05-21T14:27:40.747Z,8.82
2023-05-21T14:30:10.821Z,7.10
2023-05-21T14:32:39.192Z,6.88
2023-05-21T14:35:08.265Z,5.93
2023-05-21T14:37:37.909Z,6.20
2023-05-21T14:40:08.339Z,5.97
2023-05-21T14:42:37.354Z,7.35
2023-05-21T14:45:17.965Z,5.30
2023-05-21T14:47:48.217Z,6.22
2023-05-21T14:50:19.588Z,6.20
2023-05-21T14:52:49.374Z,5.35
2023-05-21T14:55:18.459Z,5.82
2023-05-21T14:57:46.685Z,5.70
2023-05-21T15:00:16.070Z,6.65
2023-05-21T15:02:44.806Z,6.38
2023-05-21T15:05:13.461Z,5.95
2023-05-21T15:07:41.888Z,7.22
2023-05-21T15:10:12.527Z,6.32
2023-05-21T15:12:41.997Z,5.72
2023-05-21T15:15:12.313Z,6.07
2023-05-21T15:17:40.968Z,5.68
2023-05-21T15:20:10.370Z,6.38
2023-05-21T15:22:38.653Z,5.72
2023-05-21T15:25:08.100Z,6.50
2023-05-21T15:27:37.731Z,5.95
2023-05-21T15:30:07.989Z,6.13
2023-05-21T15:32:36.484Z,5.95
2023-05-21T15:35:05.110Z,7.13
2023-05-21T15:37:34.239Z,6.50
2023-05-21T15:40:02.600Z,7.20
2023-05-21T15:42:31.791Z,6.40
2023-05-21T15:45:01.603Z,6.35
2023-05-21T15:47:30.008Z,14.43
2023-05-21T15:50:00.216Z,6.75
2023-05-21T15:52:28.695Z,7.38
2023-05-21T15:54:57.031Z,9.18
2023-05-21T15:57:25.518Z,6.40
2023-05-21T15:59:53.888Z,5.43
2023-05-21T16:02:23.503Z,6.68
2023-05-21T16:04:52.248Z,6.30
2023-05-21T16:07:21.075Z,5.88
2023-05-21T16:09:49.304Z,5.75
2023-05-21T16:12:20.785Z,6.22
2023-05-21T16:14:50.862Z,5.97
2023-05-21T16:17:19.668Z,6.05
2023-05-21T16:19:49.406Z,5.15
2023-05-21T16:22:17.914Z,5.38
2023-05-21T16:24:46.254Z,5.28
2023-05-21T16:27:14.783Z,5.82
2023-05-21T16:29:43.295Z,6.15
2023-05-21T16:32:13.873Z,5.45
2023-05-21T16:34:42.485Z,5.32
2023-05-21T16:37:12.219Z,5.32
2023-05-21T16:39:40.452Z,5.80
2023-05-21T16:42:08.686Z,5.38
2023-05-21T16:44:37.901Z,5.95
2023-05-21T16:47:06.491Z,5.97
2023-05-21T16:49:34.774Z,5.32
2023-05-21T16:52:03.218Z,5.80
2023-05-21T16:54:33.053Z,5.50
2023-05-21T16:57:01.529Z,5.55
2023-05-21T16:59:30.287Z,5.95
2023-05-21T17:01:58.585Z,5.32
2023-05-21T17:04:27.230Z,5.57
2023-05-21T17:06:55.661Z,6.03
2023-05-21T17:09:23.860Z,5.32
2023-05-21T17:11:53.629Z,6.07
2023-05-21T17:14:33.080Z,5.88
2023-05-21T17:17:03.266Z,5.57
2023-05-21T17:19:31.733Z,6.13
2023-05-21T17:22:00.203Z,5.70
2023-05-21T17:24:28.567Z,5.90
2023-05-21T17:26:58.249Z,6.20
2023-05-21T17:29:27.070Z,5.38
2023-05-21T17:31:55.619Z,5.72
2023-05-21T17:34:26.207Z,5.82
2023-05-21T17:36:55.614Z,5.95
2023-05-21T17:39:24.312Z,6.00
2023-05-21T17:41:53.328Z,6.35
2023-05-21T17:44:23.438Z,5.82
2023-05-21T17:46:52.571Z,5.70
2023-05-21T17:49:21.189Z,5.85
2023-05-21T17:51:49.902Z,6.07
2023-05-21T17:54:18.253Z,6.00
2023-05-21T17:56:46.729Z,5.93
2023-05-21T17:59:16.563Z,5.90
2023-05-21T18:01:46.273Z,5.95
2023-05-21T18:04:14.627Z,6.43
2023-05-21T18:06:44.163Z,7.13
2023-05-21T18:09:14.366Z,6.38
2023-05-21T18:11:44.736Z,6.53
2023-05-21T18:14:13.096Z,6.05
2023-05-21T18:16:41.815Z,6.60
2023-05-21T18:19:11.787Z,6.38
2023-05-21T18:21:40.320Z,7.25
2023-05-21T18:24:09.300Z,6.32
2023-05-21T18:26:37.685Z,6.50
2023-05-21T18:29:06.218Z,6.63
2023-05-21T18:31:34.749Z,7.05
2023-05-21T18:34:03.030Z,6.72
2023-05-21T18:36:38.556Z,6.82
2023-05-21T18:39:07.772Z,7.35
2023-05-21T18:41:37.130Z,7.18
2023-05-21T18:44:06.096Z,7.00
2023-05-21T18:46:34.553Z,7.30
2023-05-21T18:49:03.220Z,6.55
2023-05-21T18:51:33.014Z,7.38
2023-05-21T18:54:01.642Z,7.03
2023-05-21T18:56:29.893Z,7.60
2023-05-21T18:58:58.439Z,7.95
2023-05-21T19:01:27.480Z,7.50
2023-05-21T19:03:55.851Z,7.63
2023-05-21T19:06:25.706Z,8.13
2023-05-21T19:08:55.644Z,7.32
2023-05-21T19:11:27.501Z,7.68
2023-05-21T19:13:55.999Z,7.75
2023-05-21T19:16:24.332Z,7.25
2023-05-21T19:18:52.812Z,7.95
2023-05-21T19:21:21.464Z,7.00
2023-05-21T19:23:53.394Z,8.38
2023-05-21T19:26:24.317Z,7.65
2023-05-21T19:28:54.613Z,8.13
2023-05-21T19:31:25.385Z,7.60
2023-05-21T19:33:54.144Z,8.10
2023-05-21T19:36:23.066Z,8.32
2023-05-21T19:38:52.359Z,8.85
2023-05-21T19:41:23.608Z,7.95
2023-05-21T19:43:52.171Z,8.15
2023-05-21T19:46:20.856Z,7.38
2023-05-21T19:48:49.946Z,8.40
2023-05-21T19:51:18.624Z,7.50
2023-05-21T19:53:46.986Z,7.72
2023-05-21T19:56:15.421Z,7.40
2023-05-21T19:58:47.129Z,7.70
2023-05-21T20:01:17.337Z,8.32
2023-05-21T20:03:46.050Z,7.20
2023-05-21T20:06:15.396Z,7.78
2023-05-21T20:08:43.708Z,7.13
2023-05-21T20:11:12.333Z,7.18
2023-05-21T20:13:41.681Z,8.30
2023-05-21T20:16:12.602Z,8.15
2023-05-21T20:18:41.639Z,9.02
2023-05-21T20:21:10.443Z,7.90
2023-05-21T20:23:38.789Z,7.85
2023-05-21T20:26:07.743Z,8.50
2023-05-21T20:28:37.372Z,7.50
2023-05-21T20:31:06.291Z,7.72
2023-05-21T20:33:40.028Z,8.02
2023-05-21T20:36:09.210Z,8.75
2023-05-21T20:38:38.672Z,8.60
2023-05-21T20:41:06.918Z,8.30
2023-05-21T20:43:37.428Z,8.63
2023-05-21T20:46:06.088Z,8.75
2023-05-21T20:48:37.692Z,8.63
2023-05-21T20:51:06.818Z,9.07
2023-05-21T20:53:35.623Z,9.13
2023-05-21T20:56:07.914Z,9.48
2023-05-21T20:58:36.350Z,9.45
2023-05-21T21:01:04.958Z,8.57
2023-05-21T21:03:35.576Z,9.57
2023-05-21T21:06:06.497Z,9.88
2023-05-21T21:08:35.434Z,9.60
2023-05-21T21:11:03.914Z,9.00
2023-05-21T21:13:32.400Z,9.18
2023-05-21T21:16:00.942Z,10.43
2023-05-21T21:18:29.517Z,10.07
2023-05-21T21:20:59.835Z,11.05
2023-05-21T21:23:30.360Z,10.40
2023-05-21T21:25:58.860Z,10.77
2023-05-21T21:28:27.300Z,10.02
2023-05-21T21:30:55.832Z,9.40
2023-05-21T21:33:26.758Z,9.55
2023-05-21T21:35:55.238Z,9.85
2023-05-21T21:38:25.357Z,9.45
2023-05-21T21:40:54.392Z,9.60
2023-05-21T21:43:22.845Z,9.82
2023-05-21T21:45:51.339Z,10.23
2023-05-21T21:48:19.528Z,9.98
2023-05-21T21:50:47.738Z,9.18
2023-05-21T21:53:16.026Z,9.57
2023-05-21T21:55:45.662Z,9.27
2023-05-21T21:58:14.045Z,10.25
2023-05-21T22:00:42.470Z,9.90
2023-05-21T22:03:12.981Z,9.43
2023-05-21T22:05:42.782Z,9.75
2023-05-21T22:08:11.308Z,10.50
2023-05-21T22:10:39.889Z,9.25
2023-05-21T22:13:09.900Z,9.95
2023-05-21T22:15:38.697Z,10.05
2023-05-21T22:18:09.615Z,11.00
2023-05-21T22:20:38.144Z,9.55
2023-05-21T22:23:07.342Z,11.13
2023-05-21T22:25:35.980Z,10.77
2023-05-21T22:28:06.571Z,9.80
2023-05-21T22:30:38.893Z,11.05
2023-05-21T22:33:11.714Z,10.07
2023-05-21T22:35:40.223Z,10.18
2023-05-21T22:38:16.707Z,10.30
2023-05-21T22:40:47.986Z,11.10
2023-05-21T22:43:16.531Z,10.88
2023-05-21T22:45:47.038Z,9.77
2023-05-21T22:48:21.032Z,10.90
2023-05-21T22:50:58.045Z,10.52
2023-05-21T22:53:29.466Z,11.05
2023-05-21T22:55:58.222Z,10.88
2023-05-21T22:58:27.093Z,11.35
2023-05-21T23:00:56.962Z,10.35
2023-05-21T23:03:26.823Z,9.98
2023-05-21T23:05:58.916Z,11.07
2023-05-21T23:08:29.164Z,11.07
2023-05-21T23:10:57.881Z,11.07
2023-05-21T23:13:26.391Z,11.07
2023-05-21T23:16:03.348Z,10.40
2023-05-21T23:18:32.717Z,10.90
2023-05-21T23:21:01.007Z,11.63
2023-05-21T23:23:29.256Z,11.15
2023-05-21T23:25:58.860Z,11.00
2023-05-21T23:28:27.319Z,11.88
2023-05-21T23:30:55.561Z,11.32
2023-05-21T23:33:25.083Z,11.20
2023-05-21T23:35:53.287Z,11.70
2023-05-21T23:38:21.583Z,11.57
2023-05-21T23:40:49.807Z,11.07
2023-05-21T23:43:18.528Z,12.65
2023-05-21T23:45:46.762Z,11.00
2023-05-21T23:48:14.969Z,11.30
2023-05-21T23:50:44.645Z,11.73
2023-05-21T23:53:12.824Z,11.70
2023-05-21T23:55:41.077Z,12.07
2023-05-21T23:58:09.331Z,11.27
